createdAt,value
2022-10-06T00:01:06.773Z,14.72
2022-10-06T00:03:33.765Z,14.19
2022-10-06T00:06:04.066Z,14.67
2022-10-06T00:08:32.241Z,14.65
2022-10-06T00:10:59.118Z,14.60
2022-10-06T00:13:26.461Z,14.66
2022-10-06T00:15:53.383Z,14.63
2022-10-06T00:18:20.290Z,14.62
2022-10-06T00:20:56.516Z,14.67
2022-10-06T00:23:23.931Z,14.58
2022-10-06T00:25:51.713Z,14.18
2022-10-06T00:28:18.824Z,14.51
2022-10-06T00:30:46.765Z,14.51
2022-10-06T00:33:16.181Z,14.52
2022-10-06T00:35:43.921Z,14.28
2022-10-06T00:38:15.301Z,13.29
2022-10-06T00:40:47.065Z,14.35
2022-10-06T00:43:40.383Z,14.65
2022-10-06T00:46:32.423Z,14.19
2022-10-06T00:49:08.898Z,14.49
2022-10-06T00:51:36.885Z,14.35
2022-10-06T00:54:03.864Z,14.38
2022-10-06T00:56:30.738Z,14.46
2022-10-06T00:58:57.635Z,14.48
2022-10-06T01:01:25.037Z,14.40
2022-10-06T01:04:00.851Z,14.02
2022-10-06T01:06:27.843Z,14.33
2022-10-06T01:08:54.720Z,14.29
2022-10-06T01:11:21.583Z,14.25
2022-10-06T01:13:48.528Z,14.24
2022-10-06T01:16:26.356Z,14.17
2022-10-06T01:18:54.775Z,14.25
2022-10-06T01:21:38.999Z,14.27
2022-10-06T01:24:05.911Z,14.18
2022-10-06T01:26:33.327Z,13.96
2022-10-06T01:29:00.199Z,14.10
2022-10-06T01:31:30.069Z,13.94
2022-10-06T01:33:59.218Z,13.14
2022-10-06T01:36:26.175Z,13.80
2022-10-06T01:38:53.110Z,14.06
2022-10-06T01:41:20.065Z,13.67
2022-10-06T01:43:47.054Z,14.01
2022-10-06T01:46:15.286Z,14.04
2022-10-06T01:48:42.247Z,14.02
2022-10-06T01:51:14.677Z,13.99
2022-10-06T01:53:41.917Z,14.03
2022-10-06T01:56:09.837Z,13.67
2022-10-06T01:58:36.773Z,13.98
2022-10-06T02:01:08.615Z,13.86
2022-10-06T02:03:39.759Z,13.76
2022-10-06T02:06:07.939Z,13.77
2022-10-06T02:08:35.089Z,13.80
2022-10-06T02:11:09.150Z,13.56
2022-10-06T02:13:37.870Z,13.83
2022-10-06T02:16:06.984Z,13.87
2022-10-06T02:18:34.720Z,12.58
2022-10-06T02:21:03.537Z,13.50
2022-10-06T02:23:31.096Z,13.80
2022-10-06T02:26:00.239Z,13.46
2022-10-06T02:28:30.401Z,13.70
2022-10-06T02:31:06.262Z,13.69
2022-10-06T02:33:33.711Z,13.74
2022-10-06T02:36:00.684Z,13.58
2022-10-06T02:38:28.590Z,13.53
2022-10-06T02:40:59.836Z,13.22
2022-10-06T02:43:31.448Z,13.42
2022-10-06T02:46:03.585Z,12.20
2022-10-06T02:48:31.774Z,13.49
2022-10-06T02:51:08.892Z,13.19
2022-10-06T02:53:36.764Z,13.41
2022-10-06T02:56:10.976Z,13.45
2022-10-06T02:58:39.955Z,13.50
2022-10-06T03:01:22.087Z,13.26
2022-10-06T03:03:50.319Z,12.99
2022-10-06T03:06:23.888Z,13.40
2022-10-06T03:08:59.793Z,13.29
2022-10-06T03:11:30.255Z,13.26
2022-10-06T03:13:59.921Z,13.14
2022-10-06T03:16:33.615Z,13.19
2022-10-06T03:19:01.745Z,13.07
2022-10-06T03:21:34.576Z,13.13
2022-10-06T03:24:01.834Z,13.19
2022-10-06T03:26:35.531Z,13.13
2022-10-06T03:29:03.914Z,13.16
2022-10-06T03:31:33.316Z,13.13
2022-10-06T03:34:00.504Z,12.82
2022-10-06T03:36:30.176Z,12.97
2022-10-06T03:38:57.165Z,12.04
2022-10-06T03:41:27.087Z,12.58
2022-10-06T03:43:55.614Z,13.01
2022-10-06T03:46:34.236Z,12.88
2022-10-06T03:49:01.684Z,12.94
2022-10-06T03:51:41.044Z,12.52
2022-10-06T03:54:10.835Z,12.89
2022-10-06T03:56:40.956Z,12.85
2022-10-06T03:59:11.107Z,12.39
2022-10-06T04:01:44.742Z,12.88
2022-10-06T04:04:12.862Z,12.74
2022-10-06T04:06:42.375Z,12.40
2022-10-06T04:09:15.267Z,12.68
2022-10-06T04:11:44.279Z,12.79
2022-10-06T04:14:15.410Z,12.67
2022-10-06T04:16:45.991Z,11.26
2022-10-06T04:19:14.376Z,12.56
2022-10-06T04:21:43.609Z,12.70
2022-10-06T04:24:11.794Z,12.33
2022-10-06T04:26:42.219Z,12.49
2022-10-06T04:29:09.169Z,11.96
2022-10-06T04:31:37.260Z,12.23
2022-10-06T04:34:04.851Z,12.60
2022-10-06T04:36:34.812Z,12.49
2022-10-06T04:39:03.360Z,12.49
2022-10-06T04:41:37.312Z,12.41
2022-10-06T04:44:05.074Z,12.35
2022-10-06T04:46:48.454Z,12.28
2022-10-06T04:49:19.934Z,12.37
2022-10-06T04:51:49.979Z,12.29
2022-10-06T04:54:17.327Z,12.22
2022-10-06T04:56:44.204Z,12.18
2022-10-06T04:59:11.075Z,12.14
2022-10-06T05:01:38.186Z,11.91
2022-10-06T05:04:06.229Z,12.02
2022-10-06T05:06:38.341Z,12.07
2022-10-06T05:09:15.528Z,11.97
2022-10-06T05:11:42.444Z,11.70
2022-10-06T05:14:09.514Z,11.87
2022-10-06T05:16:38.383Z,11.97
2022-10-06T05:19:05.543Z,12.03
2022-10-06T05:21:32.935Z,11.80
2022-10-06T05:24:00.114Z,10.91
2022-10-06T05:26:31.462Z,11.89
2022-10-06T05:28:58.491Z,10.86
2022-10-06T05:31:30.349Z,11.97
2022-10-06T05:33:58.247Z,11.75
2022-10-06T05:36:30.205Z,10.23
2022-10-06T05:38:57.682Z,11.78
2022-10-06T05:41:28.757Z,11.71
2022-10-06T05:43:58.234Z,11.62
2022-10-06T05:46:32.624Z,11.72
2022-10-06T05:49:04.440Z,11.71
2022-10-06T05:51:32.788Z,11.72
2022-10-06T05:54:00.537Z,10.46
2022-10-06T05:56:28.948Z,11.68
2022-10-06T05:58:57.231Z,11.72
2022-10-06T06:01:25.952Z,10.27
2022-10-06T06:04:00.916Z,11.56
2022-10-06T06:06:33.032Z,11.67
2022-10-06T06:09:09.793Z,11.58
2022-10-06T06:11:38.719Z,10.95
2022-10-06T06:14:07.688Z,11.27
2022-10-06T06:16:35.988Z,11.48
2022-10-06T06:19:03.176Z,10.32
2022-10-06T06:21:30.083Z,11.57
2022-10-06T06:23:57.298Z,11.22
2022-10-06T06:26:26.068Z,11.46
2022-10-06T06:28:54.570Z,11.68
2022-10-06T06:31:27.218Z,11.63
2022-10-06T06:33:56.550Z,11.81
2022-10-06T06:36:36.979Z,11.27
2022-10-06T06:39:06.760Z,11.69
2022-10-06T06:41:37.676Z,11.67
2022-10-06T06:44:06.846Z,11.75
2022-10-06T06:49:22.068Z,11.52
2022-10-06T06:51:49.988Z,11.56
2022-10-06T06:54:18.977Z,11.09
2022-10-06T06:56:46.642Z,10.46
2022-10-06T06:59:13.683Z,11.47
2022-10-06T07:01:44.485Z,11.68
2022-10-06T07:04:12.849Z,11.80
2022-10-06T07:06:40.553Z,11.68
2022-10-06T07:09:08.155Z,10.54
2022-10-06T07:11:38.556Z,11.78
2022-10-06T07:14:09.905Z,11.75
2022-10-06T07:16:55.461Z,11.73
2022-10-06T07:20:01.178Z,11.71
2022-10-06T07:23:06.761Z,11.95
2022-10-06T07:25:33.634Z,11.34
2022-10-06T07:28:00.574Z,11.76
2022-10-06T07:30:28.514Z,11.88
2022-10-06T07:32:55.684Z,10.99
2022-10-06T07:35:24.024Z,12.02
2022-10-06T07:37:53.248Z,11.97
2022-10-06T07:40:20.230Z,12.21
2022-10-06T07:42:52.067Z,12.29
2022-10-06T07:45:41.593Z,12.23
2022-10-06T07:48:11.424Z,12.60
2022-10-06T07:50:39.311Z,12.52
2022-10-06T07:53:16.245Z,12.82
2022-10-06T07:55:45.425Z,13.06
2022-10-06T07:58:15.136Z,13.26
2022-10-06T08:00:42.925Z,13.17
2022-10-06T08:03:11.230Z,13.33
2022-10-06T08:05:39.287Z,13.52
2022-10-06T08:08:06.617Z,13.80
2022-10-06T08:10:33.566Z,13.99
2022-10-06T08:13:01.324Z,14.15
2022-10-06T08:15:28.222Z,13.93
2022-10-06T08:17:55.097Z,14.41
2022-10-06T08:20:24.256Z,14.60
2022-10-06T08:22:51.213Z,14.74
2022-10-06T08:25:18.292Z,14.70
2022-10-06T08:27:46.494Z,14.88
2022-10-06T08:30:14.911Z,15.06
2022-10-06T08:32:43.326Z,15.20
2022-10-06T08:35:10.910Z,15.31
2022-10-06T08:37:37.812Z,15.50
2022-10-06T08:40:06.151Z,15.41
2022-10-06T08:42:43.636Z,15.62
2022-10-06T08:45:38.667Z,15.88
2022-10-06T08:48:20.172Z,15.91
2022-10-06T08:51:07.622Z,15.88
2022-10-06T08:53:39.494Z,15.90
2022-10-06T08:56:17.974Z,14.68
2022-10-06T08:58:44.700Z,16.06
2022-10-06T09:01:23.593Z,16.10
2022-10-06T09:03:52.576Z,16.03
2022-10-06T09:06:42.594Z,16.02
2022-10-06T09:09:30.610Z,16.25
2022-10-06T09:12:04.066Z,16.26
2022-10-06T09:14:37.612Z,15.74
2022-10-06T09:17:08.213Z,16.12
2022-10-06T09:20:07.314Z,16.27
2022-10-06T09:22:34.209Z,16.32
2022-10-06T09:25:20.876Z,16.45
2022-10-06T09:27:52.487Z,16.35
2022-10-06T09:30:19.439Z,16.27
2022-10-06T09:32:48.076Z,16.43
2022-10-06T09:35:23.086Z,16.47
2022-10-06T09:38:08.320Z,16.38
2022-10-06T09:40:40.367Z,16.60
2022-10-06T09:43:26.197Z,16.47
2022-10-06T09:45:54.863Z,16.33
2022-10-06T09:48:25.112Z,16.53
2022-10-06T09:51:17.200Z,16.61
2022-10-06T09:53:44.980Z,16.33
2022-10-06T09:56:20.524Z,14.25
2022-10-06T09:58:58.701Z,16.40
2022-10-06T10:01:29.976Z,16.23
2022-10-06T10:04:20.558Z,16.15
2022-10-06T10:06:47.508Z,16.15
2022-10-06T10:09:20.631Z,16.35
2022-10-06T10:12:26.513Z,16.41
2022-10-06T10:14:59.307Z,16.10
2022-10-06T10:17:29.075Z,16.42
2022-10-06T10:19:56.451Z,16.36
2022-10-06T10:22:27.307Z,16.01
2022-10-06T10:25:06.367Z,16.29
2022-10-06T10:27:52.262Z,16.08
2022-10-06T10:30:19.184Z,16.25
2022-10-06T10:33:11.375Z,16.24
2022-10-06T10:35:42.888Z,16.38
2022-10-06T10:38:20.666Z,16.28
2022-10-06T10:40:49.060Z,16.42
2022-10-06T10:43:38.208Z,14.70
2022-10-06T10:46:27.303Z,15.22
2022-10-06T10:48:56.075Z,16.62
2022-10-06T10:51:33.161Z,16.64
2022-10-06T10:54:15.039Z,16.59
2022-10-06T10:56:41.916Z,16.54
2022-10-06T10:59:26.980Z,16.61
2022-10-06T11:02:03.220Z,16.56
2022-10-06T11:04:30.133Z,16.49
2022-10-06T11:07:23.380Z,15.46
2022-10-06T11:09:53.062Z,16.54
2022-10-06T11:12:29.836Z,16.50
2022-10-06T11:15:12.887Z,16.20
2022-10-06T11:17:47.105Z,16.56
2022-10-06T11:20:42.763Z,16.36
2022-10-06T11:23:38.058Z,16.68
2022-10-06T11:26:30.015Z,16.61
2022-10-06T11:29:32.518Z,16.62
2022-10-06T11:32:21.685Z,16.33
2022-10-06T11:34:49.924Z,16.80
2022-10-06T11:37:25.747Z,16.83
2022-10-06T11:40:10.683Z,16.88
2022-10-06T11:42:41.766Z,16.91
2022-10-06T11:45:16.470Z,16.82
2022-10-06T11:48:10.316Z,17.05
2022-10-06T11:50:37.674Z,17.11
2022-10-06T11:53:05.750Z,15.75
2022-10-06T11:55:32.771Z,17.19
2022-10-06T11:58:23.397Z,17.00
2022-10-06T12:00:53.284Z,17.02
2022-10-06T12:03:34.476Z,16.95
2022-10-06T12:06:03.321Z,17.17
2022-10-06T12:08:37.736Z,17.13
2022-10-06T12:11:43.100Z,16.43
2022-10-06T12:17:22.711Z,16.27
2022-10-06T12:20:16.698Z,17.34
2022-10-06T12:22:46.314Z,17.35
2022-10-06T12:25:26.815Z,17.34
2022-10-06T12:28:31.175Z,17.36
2022-10-06T12:31:30.276Z,16.71
2022-10-06T12:33:57.177Z,16.90
2022-10-06T12:36:29.284Z,17.09
2022-10-06T12:39:05.487Z,17.10
2022-10-06T12:41:57.906Z,17.33
2022-10-06T12:44:25.742Z,17.32
2022-10-06T12:46:53.067Z,17.30
2022-10-06T12:49:32.037Z,17.32
2022-10-06T12:52:00.670Z,17.12
2022-10-06T12:54:36.157Z,17.34
2022-10-06T12:57:16.025Z,17.15
2022-10-06T12:59:42.923Z,17.33
2022-10-06T13:02:24.035Z,17.13
2022-10-06T13:05:01.020Z,17.35
2022-10-06T13:07:30.256Z,17.33
2022-10-06T13:10:15.408Z,17.34
2022-10-06T13:12:46.774Z,17.00
2022-10-06T13:18:07.782Z,17.47
2022-10-06T13:20:41.950Z,17.39
2022-10-06T13:23:10.442Z,17.51
2022-10-06T13:25:53.794Z,17.32
2022-10-06T13:28:35.816Z,17.53
2022-10-06T13:31:22.891Z,17.57
2022-10-06T13:34:00.166Z,17.59
2022-10-06T13:36:35.353Z,17.44
2022-10-06T13:39:05.962Z,17.68
2022-10-06T13:41:36.132Z,16.20
2022-10-06T13:44:12.213Z,17.69
2022-10-06T13:46:40.604Z,17.43
2022-10-06T13:49:33.548Z,17.43
2022-10-06T13:52:10.128Z,17.51
2022-10-06T13:54:59.047Z,17.59
2022-10-06T13:57:38.157Z,17.58
2022-10-06T14:00:17.128Z,17.79
2022-10-06T14:02:46.092Z,17.83
2022-10-06T14:05:29.518Z,17.89
2022-10-06T14:08:22.087Z,17.76
2022-10-06T14:10:55.773Z,17.95
2022-10-06T14:13:29.963Z,17.67
2022-10-06T14:16:00.893Z,17.98
2022-10-06T14:18:45.180Z,17.08
2022-10-06T14:21:34.164Z,17.76
2022-10-06T14:24:06.049Z,17.88
2022-10-06T14:26:36.296Z,17.67
2022-10-06T14:29:03.660Z,17.81
2022-10-06T14:31:34.163Z,17.75
2022-10-06T14:34:01.864Z,17.87
2022-10-06T14:36:30.443Z,17.74
2022-10-06T14:38:58.210Z,17.74
2022-10-06T14:41:29.431Z,17.84
2022-10-06T14:44:15.880Z,17.75
2022-10-06T14:46:44.123Z,17.79
2022-10-06T14:49:13.421Z,17.77
2022-10-06T14:51:41.646Z,17.44
2022-10-06T14:54:10.557Z,17.65
2022-10-06T14:56:39.095Z,17.60
2022-10-06T14:59:07.770Z,17.62
2022-10-06T15:01:36.223Z,17.82
2022-10-06T15:04:09.351Z,17.61
2022-10-06T15:06:54.899Z,17.47
2022-10-06T15:09:21.873Z,17.47
2022-10-06T15:11:48.779Z,17.71
2022-10-06T15:14:15.766Z,17.74
2022-10-06T15:16:44.522Z,17.74
2022-10-06T15:19:14.552Z,17.56
2022-10-06T15:21:45.354Z,17.87
2022-10-06T15:24:14.823Z,17.79
2022-10-06T15:27:00.768Z,17.56
2022-10-06T15:29:27.904Z,17.72
2022-10-06T15:31:56.290Z,17.57
2022-10-06T15:34:27.816Z,17.61
2022-10-06T15:36:55.536Z,17.58
2022-10-06T15:39:24.729Z,17.57
2022-10-06T15:41:51.802Z,17.39
2022-10-06T15:44:19.740Z,17.26
2022-10-06T15:46:49.298Z,17.03
2022-10-06T15:49:19.912Z,17.39
2022-10-06T15:51:50.023Z,16.86
2022-10-06T15:54:22.680Z,17.29
2022-10-06T15:56:57.225Z,16.97
2022-10-06T15:59:26.695Z,15.95
2022-10-06T16:02:01.526Z,16.61
2022-10-06T16:04:39.388Z,16.99
2022-10-06T16:07:17.169Z,16.92
2022-10-06T16:09:45.368Z,16.87
2022-10-06T16:12:16.373Z,16.83
2022-10-06T16:14:43.661Z,16.74
2022-10-06T16:17:11.072Z,16.80
2022-10-06T16:19:38.044Z,16.81
2022-10-06T16:22:06.744Z,16.39
2022-10-06T16:24:33.667Z,16.62
2022-10-06T16:27:00.544Z,16.57
2022-10-06T16:29:28.112Z,15.67
2022-10-06T16:31:55.139Z,16.31
2022-10-06T16:34:22.573Z,16.62
2022-10-06T16:36:50.905Z,16.57
2022-10-06T16:39:19.670Z,16.38
2022-10-06T16:41:47.100Z,16.54
2022-10-06T16:44:14.147Z,16.43
2022-10-06T16:46:41.071Z,16.37
2022-10-06T16:49:09.202Z,16.36
2022-10-06T16:51:41.135Z,16.26
2022-10-06T16:54:10.379Z,16.20
2022-10-06T16:56:41.388Z,16.02
2022-10-06T16:59:11.909Z,16.00
2022-10-06T17:01:39.028Z,15.75
2022-10-06T17:04:14.021Z,15.97
2022-10-06T17:06:43.437Z,15.77
2022-10-06T17:09:14.113Z,15.40
2022-10-06T17:11:42.453Z,15.59
2022-10-06T17:14:09.330Z,15.57
2022-10-06T17:16:40.776Z,15.70
2022-10-06T17:19:07.988Z,15.45
2022-10-06T17:21:55.763Z,15.07
2022-10-06T17:24:23.113Z,15.57
2022-10-06T17:26:53.184Z,15.17
2022-10-06T17:29:22.150Z,15.30
2022-10-06T17:31:50.747Z,15.43
2022-10-06T17:34:26.541Z,15.45
2022-10-06T17:36:57.546Z,15.35
2022-10-06T17:39:24.641Z,15.24
2022-10-06T17:41:53.600Z,15.43
2022-10-06T17:44:24.240Z,15.23
2022-10-06T17:46:55.221Z,14.94
2022-10-06T17:49:24.176Z,13.93
2022-10-06T17:51:53.732Z,15.20
2022-10-06T17:54:23.676Z,15.29
2022-10-06T17:56:54.226Z,15.19
2022-10-06T17:59:28.484Z,14.15
2022-10-06T18:01:56.946Z,14.90
2022-10-06T18:04:24.267Z,15.08
2022-10-06T18:06:53.067Z,14.16
2022-10-06T18:09:20.184Z,14.77
2022-10-06T18:11:57.849Z,14.90
2022-10-06T18:14:26.430Z,14.79
2022-10-06T18:16:56.754Z,14.83
2022-10-06T18:19:26.617Z,14.89
2022-10-06T18:21:54.648Z,14.82
2022-10-06T18:24:22.922Z,14.71
2022-10-06T18:26:53.085Z,14.37
2022-10-06T18:29:22.056Z,14.57
2022-10-06T18:31:50.686Z,14.32
2022-10-06T18:37:04.863Z,14.61
2022-10-06T18:39:33.454Z,14.57
2022-10-06T18:42:03.058Z,14.68
2022-10-06T18:44:48.338Z,14.55
2022-10-06T18:47:33.883Z,14.44
2022-10-06T18:50:00.804Z,14.37
2022-10-06T18:52:27.675Z,14.50
2022-10-06T18:54:54.552Z,14.10
2022-10-06T18:57:26.509Z,14.34
2022-10-06T18:59:55.186Z,14.35
2022-10-06T19:02:22.269Z,14.22
2022-10-06T19:04:49.349Z,14.30
2022-10-06T19:07:16.241Z,14.41
2022-10-06T19:09:46.563Z,14.41
2022-10-06T19:12:14.102Z,14.19
2022-10-06T19:14:47.344Z,14.37
2022-10-06T19:17:15.187Z,14.19
2022-10-06T19:19:44.228Z,14.20
2022-10-06T19:22:12.736Z,14.29
2022-10-06T19:24:41.853Z,14.13
2022-10-06T19:27:11.382Z,14.08
2022-10-06T19:29:45.934Z,14.07
2022-10-06T19:32:18.518Z,13.96
2022-10-06T19:34:47.021Z,14.12
2022-10-06T19:37:14.321Z,14.10
2022-10-06T19:39:43.165Z,13.65
2022-10-06T19:42:33.107Z,13.81
2022-10-06T19:45:00.203Z,13.72
2022-10-06T19:47:27.417Z,13.73
2022-10-06T19:49:59.700Z,14.02
2022-10-06T19:52:31.110Z,13.98
2022-10-06T19:54:58.040Z,13.93
2022-10-06T19:57:28.550Z,13.96
2022-10-06T19:59:58.727Z,13.83
2022-10-06T20:02:28.012Z,13.80
2022-10-06T20:04:54.953Z,13.84
2022-10-06T20:07:25.497Z,13.79
2022-10-06T20:09:52.474Z,13.49
2022-10-06T20:12:24.323Z,13.75
2022-10-06T20:14:53.304Z,13.63
2022-10-06T20:17:20.856Z,13.65
2022-10-06T20:19:47.904Z,13.48
2022-10-06T20:22:14.857Z,13.38
2022-10-06T20:24:41.829Z,13.53
2022-10-06T20:27:09.107Z,13.39
2022-10-06T20:29:36.421Z,13.44
2022-10-06T20:32:05.345Z,13.51
2022-10-06T20:34:33.058Z,13.44
2022-10-06T20:37:02.629Z,13.37
2022-10-06T20:39:53.495Z,13.33
2022-10-06T20:42:22.606Z,13.33
2022-10-06T20:44:49.833Z,13.42
2022-10-06T20:47:16.868Z,13.41
2022-10-06T20:49:44.585Z,13.22
2022-10-06T20:52:14.962Z,13.40
2022-10-06T20:54:42.115Z,13.09
2022-10-06T20:57:09.774Z,13.18
2022-10-06T20:59:37.473Z,13.14
2022-10-06T21:02:05.923Z,13.44
2022-10-06T21:04:33.882Z,13.26
2022-10-06T21:07:01.782Z,12.82
2022-10-06T21:09:29.356Z,13.21
2022-10-06T21:11:59.388Z,13.28
2022-10-06T21:14:26.609Z,13.33
2022-10-06T21:16:53.675Z,13.37
2022-10-06T21:19:20.702Z,12.85
2022-10-06T21:21:53.444Z,13.32
2022-10-06T21:24:20.740Z,12.43
2022-10-06T21:26:48.452Z,13.34
2022-10-06T21:29:16.246Z,12.95
2022-10-06T21:31:44.770Z,13.27
2022-10-06T21:34:14.330Z,12.65
2022-10-06T21:36:43.505Z,13.30
2022-10-06T21:39:11.125Z,13.13
2022-10-06T21:41:41.367Z,13.22
2022-10-06T21:44:13.001Z,11.49
2022-10-06T21:46:42.473Z,13.04
2022-10-06T21:49:11.065Z,13.12
2022-10-06T21:51:38.378Z,13.09
2022-10-06T21:54:05.529Z,12.80
2022-10-06T21:56:33.300Z,13.09
2022-10-06T21:59:00.357Z,13.08
2022-10-06T22:01:29.260Z,12.75
2022-10-06T22:04:02.955Z,13.06
2022-10-06T22:06:31.298Z,12.69
2022-10-06T22:08:59.445Z,12.73
2022-10-06T22:11:31.434Z,13.05
2022-10-06T22:14:00.265Z,13.05
2022-10-06T22:16:29.624Z,12.80
2022-10-06T22:18:56.794Z,12.64
2022-10-06T22:21:29.026Z,12.59
2022-10-06T22:24:00.641Z,12.73
2022-10-06T22:26:30.955Z,12.92
2022-10-06T22:28:58.412Z,12.88
2022-10-06T22:31:26.823Z,12.75
2022-10-06T22:33:56.317Z,12.78
2022-10-06T22:36:23.450Z,12.76
2022-10-06T22:38:50.660Z,12.12
2022-10-06T22:41:18.552Z,12.47
2022-10-06T22:43:45.598Z,12.77
2022-10-06T22:46:12.835Z,12.68
2022-10-06T22:48:40.025Z,12.66
2022-10-06T22:51:07.056Z,12.63
2022-10-06T22:53:34.366Z,12.33
2022-10-06T22:56:02.081Z,12.28
2022-10-06T22:58:28.995Z,12.30
2022-10-06T23:00:56.076Z,12.29
2022-10-06T23:03:23.333Z,12.54
2022-10-06T23:05:57.118Z,12.35
2022-10-06T23:08:24.433Z,12.40
2022-10-06T23:10:51.541Z,11.33
2022-10-06T23:13:18.519Z,12.30
2022-10-06T23:15:45.655Z,12.07
2022-10-06T23:18:12.616Z,12.23
2022-10-06T23:20:39.734Z,12.10
2022-10-06T23:23:06.685Z,11.70
2022-10-06T23:25:37.578Z,11.99
2022-10-06T23:28:04.647Z,12.23
2022-10-06T23:30:31.600Z,12.22
2022-10-06T23:32:58.506Z,12.24
2022-10-06T23:35:25.451Z,12.07
2022-10-06T23:37:52.407Z,12.05
2022-10-06T23:40:21.049Z,12.21
2022-10-06T23:42:47.955Z,12.24
2022-10-06T23:45:14.875Z,12.26
2022-10-06T23:47:42.142Z,11.87
2022-10-06T23:50:10.037Z,12.27
2022-10-06T23:52:37.395Z,12.26
2022-10-06T23:55:04.571Z,12.21
2022-10-06T23:57:31.493Z,12.11
2022-10-06T23:59:58.409Z,12.17
